sensor_id;sensor_type;location;lat;lon;timestamp;pressure;altitude;pressure_sealevel;temperature;humidity
61119;BME280;51448;51.660;5.824;2023-04-21T00:02:07;101443.44;;;7.52;100.00
61119;BME280;51448;51.660;5.824;2023-04-21T00:04:35;101441.72;;;7.51;100.00
61119;BME280;51448;51.660;5.824;2023-04-21T00:07:02;101438.25;;;7.49;100.00
61119;BME280;51448;51.660;5.824;2023-04-21T00:09:30;101419.91;;;7.49;100.00
61119;BME280;51448;51.660;5.824;2023-04-21T00:11:58;101429.53;;;7.49;100.00
61119;BME280;51448;51.660;5.824;2023-04-21T00:14:26;101426.91;;;7.47;100.00
61119;BME280;51448;51.660;5.824;2023-04-21T00:16:53;101416.44;;;7.44;100.00
61119;BME280;51448;51.660;5.824;2023-04-21T00:19:21;101415.56;;;7.43;100.00
61119;BME280;51448;51.660;5.824;2023-04-21T00:21:50;101401.63;;;7.44;100.00
61119;BME280;51448;51.660;5.824;2023-04-21T00:24:17;101398.13;;;7.44;100.00
61119;BME280;51448;51.660;5.824;2023-04-21T00:26:45;101398.13;;;7.45;100.00
61119;BME280;51448;51.660;5.824;2023-04-21T00:29:13;101392.03;;;7.45;100.00
61119;BME280;51448;51.660;5.824;2023-04-21T00:31:41;101394.66;;;7.43;100.00
61119;BME280;51448;51.660;5.824;2023-04-21T00:34:09;101393.78;;;7.43;100.00
61119;BME280;51448;51.660;5.824;2023-04-21T00:36:36;101398.16;;;7.42;100.00
61119;BME280;51448;51.660;5.824;2023-04-21T00:39:04;101404.25;;;7.43;100.00
61119;BME280;51448;51.660;5.824;2023-04-21T00:41:33;101398.16;;;7.42;100.00
61119;BME280;51448;51.660;5.824;2023-04-21T00:44:07;101401.63;;;7.43;100.00
61119;BME280;51448;51.660;5.824;2023-04-21T00:46:36;101400.78;;;7.41;100.00
61119;BME280;51448;51.660;5.824;2023-04-21T00:49:05;101407.72;;;7.42;100.00
61119;BME280;51448;51.660;5.824;2023-04-21T00:51:36;101399.00;;;7.41;100.00
61119;BME280;51448;51.660;5.824;2023-04-21T00:54:05;101399.88;;;7.42;100.00
61119;BME280;51448;51.660;5.824;2023-04-21T00:56:34;101394.66;;;7.42;100.00
61119;BME280;51448;51.660;5.824;2023-04-21T00:59:03;101392.03;;;7.42;100.00
61119;BME280;51448;51.660;5.824;2023-04-21T01:01:31;101382.44;;;7.42;100.00
61119;BME280;51448;51.660;5.824;2023-04-21T01:04:02;101388.53;;;7.44;100.00
61119;BME280;51448;51.660;5.824;2023-04-21T01:06:31;101380.66;;;7.46;100.00
61119;BME280;51448;51.660;5.824;2023-04-21T01:09:01;101374.56;;;7.47;100.00
61119;BME280;51448;51.660;5.824;2023-04-21T01:11:31;101364.94;;;7.48;100.00
61119;BME280;51448;51.660;5.824;2023-04-21T01:13:59;101370.16;;;7.52;100.00
61119;BME280;51448;51.660;5.824;2023-04-21T01:16:27;101371.91;;;7.55;100.00
61119;BME280;51448;51.660;5.824;2023-04-21T01:18:56;101367.50;;;7.58;100.00
61119;BME280;51448;51.660;5.824;2023-04-21T01:21:24;101370.09;;;7.61;100.00
61119;BME280;51448;51.660;5.824;2023-04-21T01:23:53;101369.19;;;7.62;100.00
61119;BME280;51448;51.660;5.824;2023-04-21T01:26:21;101376.19;;;7.63;100.00
61119;BME280;51448;51.660;5.824;2023-04-21T01:28:49;101375.34;;;7.61;100.00
61119;BME280;51448;51.660;5.824;2023-04-21T01:31:17;101379.72;;;7.59;100.00
61119;BME280;51448;51.660;5.824;2023-04-21T01:33:47;101374.47;;;7.56;100.00
61119;BME280;51448;51.660;5.824;2023-04-21T01:36:15;101376.25;;;7.56;100.00
61119;BME280;51448;51.660;5.824;2023-04-21T01:38:44;101364.03;;;7.55;100.00
61119;BME280;51448;51.660;5.824;2023-04-21T01:41:12;101364.91;;;7.55;100.00
61119;BME280;51448;51.660;5.824;2023-04-21T01:43:39;101378.00;;;7.55;100.00
61119;BME280;51448;51.660;5.824;2023-04-21T01:46:07;101371.00;;;7.54;100.00
61119;BME280;51448;51.660;5.824;2023-04-21T01:48:37;101357.97;;;7.51;100.00
61119;BME280;51448;51.660;5.824;2023-04-21T01:51:05;101357.94;;;7.53;100.00
61119;BME280;51448;51.660;5.824;2023-04-21T01:53:33;101357.94;;;7.53;100.00
61119;BME280;51448;51.660;5.824;2023-04-21T01:56:01;101350.97;;;7.52;100.00
61119;BME280;51448;51.660;5.824;2023-04-21T01:58:30;101346.63;;;7.49;100.00
61119;BME280;51448;51.660;5.824;2023-04-21T02:00:58;101339.63;;;7.48;100.00
61119;BME280;51448;51.660;5.824;2023-04-21T02:03:26;101336.16;;;7.49;100.00
61119;BME280;51448;51.660;5.824;2023-04-21T02:05:54;101345.78;;;7.49;100.00
61119;BME280;51448;51.660;5.824;2023-04-21T02:08:22;101335.31;;;7.49;100.00
61119;BME280;51448;51.660;5.824;2023-04-21T02:10:50;101327.41;;;7.50;100.00
61119;BME280;51448;51.660;5.824;2023-04-21T02:13:18;101323.06;;;7.51;100.00
61119;BME280;51448;51.660;5.824;2023-04-21T02:15:45;101320.41;;;7.52;100.00
61119;BME280;51448;51.660;5.824;2023-04-21T02:18:13;101324.78;;;7.53;100.00
61119;BME280;51448;51.660;5.824;2023-04-21T02:20:43;101327.41;;;7.53;100.00
61119;BME280;51448;51.660;5.824;2023-04-21T02:23:13;101330.88;;;7.52;100.00
61119;BME280;51448;51.660;5.824;2023-04-21T02:25:41;101328.31;;;7.51;100.00
61119;BME280;51448;51.660;5.824;2023-04-21T02:28:08;101316.09;;;7.50;100.00
61119;BME280;51448;51.660;5.824;2023-04-21T02:30:37;101328.31;;;7.51;100.00
61119;BME280;51448;51.660;5.824;2023-04-21T02:33:06;101328.28;;;7.52;100.00
61119;BME280;51448;51.660;5.824;2023-04-21T02:35:37;101316.97;;;7.49;100.00
61119;BME280;51448;51.660;5.824;2023-04-21T02:38:05;101316.09;;;7.48;100.00
61119;BME280;51448;51.660;5.824;2023-04-21T02:40:35;101305.66;;;7.47;100.00
61119;BME280;51448;51.660;5.824;2023-04-21T02:43:03;101309.13;;;7.45;100.00
61119;BME280;51448;51.660;5.824;2023-04-21T02:45:31;101310.00;;;7.46;100.00
61119;BME280;51448;51.660;5.824;2023-04-21T02:47:58;101303.91;;;7.45;100.00
61119;BME280;51448;51.660;5.824;2023-04-21T02:50:26;101305.66;;;7.45;100.00
61119;BME280;51448;51.660;5.824;2023-04-21T02:52:54;101307.41;;;7.44;100.00
61119;BME280;51448;51.660;5.824;2023-04-21T02:55:22;101304.78;;;7.44;100.00
61119;BME280;51448;51.660;5.824;2023-04-21T02:57:51;101305.66;;;7.45;100.00
61119;BME280;51448;51.660;5.824;2023-04-21T03:00:21;101304.78;;;7.43;100.00
61119;BME280;51448;51.660;5.824;2023-04-21T03:02:49;101303.03;;;7.42;100.00
61119;BME280;51448;51.660;5.824;2023-04-21T03:05:20;101303.03;;;7.42;100.00
61119;BME280;51448;51.660;5.824;2023-04-21T03:07:49;101293.47;;;7.41;100.00
61119;BME280;51448;51.660;5.824;2023-04-21T03:10:17;101301.31;;;7.41;100.00
61119;BME280;51448;51.660;5.824;2023-04-21T03:12:46;101308.28;;;7.42;100.00
61119;BME280;51448;51.660;5.824;2023-04-21T03:15:14;101301.31;;;7.41;100.00
61119;BME280;51448;51.660;5.824;2023-04-21T03:17:43;101297.84;;;7.40;100.00
61119;BME280;51448;51.660;5.824;2023-04-21T03:20:11;101291.72;;;7.40;100.00
61119;BME280;51448;51.660;5.824;2023-04-21T03:22:39;101286.47;;;7.43;100.00
61119;BME280;51448;51.660;5.824;2023-04-21T03:25:07;101295.19;;;7.43;100.00
61119;BME280;51448;51.660;5.824;2023-04-21T03:27:35;101291.72;;;7.43;100.00
61119;BME280;51448;51.660;5.824;2023-04-21T03:30:03;101294.31;;;7.44;100.00
61119;BME280;51448;51.660;5.824;2023-04-21T03:32:33;101281.25;;;7.44;100.00
61119;BME280;51448;51.660;5.824;2023-04-21T03:35:00;101285.59;;;7.44;100.00
61119;BME280;51448;51.660;5.824;2023-04-21T03:37:28;101285.63;;;7.42;100.00
61119;BME280;51448;51.660;5.824;2023-04-21T03:39:56;101291.72;;;7.41;100.00
61119;BME280;51448;51.660;5.824;2023-04-21T03:42:24;101280.41;;;7.38;100.00
61119;BME280;51448;51.660;5.824;2023-04-21T03:44:52;101277.81;;;7.36;100.00
61119;BME280;51448;51.660;5.824;2023-04-21T03:47:20;101282.16;;;7.36;100.00
61119;BME280;51448;51.660;5.824;2023-04-21T03:49:47;101283.06;;;7.35;100.00
61119;BME280;51448;51.660;5.824;2023-04-21T03:52:15;101285.66;;;7.35;100.00
61119;BME280;51448;51.660;5.824;2023-04-21T03:54:43;101285.66;;;7.35;100.00
61119;BME280;51448;51.660;5.824;2023-04-21T03:57:11;101276.91;;;7.36;100.00
61119;BME280;51448;51.660;5.824;2023-04-21T03:59:40;101283.06;;;7.33;100.00
61119;BME280;51448;51.660;5.824;2023-04-21T04:02:08;101278.72;;;7.32;100.00
61119;BME280;51448;51.660;5.824;2023-04-21T04:04:36;101276.97;;;7.33;100.00
61119;BME280;51448;51.660;5.824;2023-04-21T04:07:04;101276.09;;;7.32;100.00
61119;BME280;51448;51.660;5.824;2023-04-21T04:09:33;101278.69;;;7.34;100.00
61119;BME280;51448;51.660;5.824;2023-04-21T04:12:01;101277.81;;;7.33;100.00
61119;BME280;51448;51.660;5.824;2023-04-21T04:14:29;101274.34;;;7.33;100.00
61119;BME280;51448;51.660;5.824;2023-04-21T04:16:57;101280.44;;;7.32;100.00
61119;BME280;51448;51.660;5.824;2023-04-21T04:19:32;101282.19;;;7.33;100.00
61119;BME280;51448;51.660;5.824;2023-04-21T04:22:00;101282.19;;;7.30;100.00
61119;BME280;51448;51.660;5.824;2023-04-21T04:24:28;101286.56;;;7.28;100.00
61119;BME280;51448;51.660;5.824;2023-04-21T04:26:55;101284.00;;;7.26;100.00
61119;BME280;51448;51.660;5.824;2023-04-21T04:29:24;101281.38;;;7.24;100.00
61119;BME280;51448;51.660;5.824;2023-04-21T04:31:53;101285.75;;;7.24;100.00
61119;BME280;51448;51.660;5.824;2023-04-21T04:34:21;101287.47;;;7.25;100.00
61119;BME280;51448;51.660;5.824;2023-04-21T04:36:49;101274.41;;;7.25;100.00
61119;BME280;51448;51.660;5.824;2023-04-21T04:39:17;101270.91;;;7.24;100.00
61119;BME280;51448;51.660;5.824;2023-04-21T04:41:45;101271.78;;;7.23;100.00
61119;BME280;51448;51.660;5.824;2023-04-21T04:44:14;101275.25;;;7.25;100.00
61119;BME280;51448;51.660;5.824;2023-04-21T04:46:44;101279.63;;;7.23;100.00
61119;BME280;51448;51.660;5.824;2023-04-21T04:49:12;101282.25;;;7.27;100.00
61119;BME280;51448;51.660;5.824;2023-04-21T04:51:40;101276.09;;;7.28;100.00
61119;BME280;51448;51.660;5.824;2023-04-21T04:54:07;101279.59;;;7.30;100.00
61119;BME280;51448;51.660;5.824;2023-04-21T04:56:35;101287.44;;;7.30;100.00
61119;BME280;51448;51.660;5.824;2023-04-21T04:59:03;101287.44;;;7.33;100.00
61119;BME280;51448;51.660;5.824;2023-04-21T05:01:31;101279.56;;;7.33;100.00
61119;BME280;51448;51.660;5.824;2023-04-21T05:03:59;101285.66;;;7.33;100.00
61119;BME280;51448;51.660;5.824;2023-04-21T05:06:27;101293.53;;;7.33;100.00
61119;BME280;51448;51.660;5.824;2023-04-21T05:08:55;101284.81;;;7.34;100.00
61119;BME280;51448;51.660;5.824;2023-04-21T05:11:22;101297.84;;;7.36;100.00
61119;BME280;51448;51.660;5.824;2023-04-21T05:13:50;101293.50;;;7.36;100.00
61119;BME280;51448;51.660;5.824;2023-04-21T05:16:19;101299.59;;;7.37;100.00
61119;BME280;51448;51.660;5.824;2023-04-21T05:18:46;101300.47;;;7.39;100.00
61119;BME280;51448;51.660;5.824;2023-04-21T05:21:24;101306.56;;;7.41;100.00
61119;BME280;51448;51.660;5.824;2023-04-21T05:23:56;101316.13;;;7.42;100.00
61119;BME280;51448;51.660;5.824;2023-04-21T05:26:27;101313.50;;;7.42;100.00
61119;BME280;51448;51.660;5.824;2023-04-21T05:28:56;101309.13;;;7.45;100.00
61119;BME280;51448;51.660;5.824;2023-04-21T05:31:24;101312.59;;;7.48;100.00
61119;BME280;51448;51.660;5.824;2023-04-21T05:33:52;101316.06;;;7.51;100.00
61119;BME280;51448;51.660;5.824;2023-04-21T05:36:20;101315.19;;;7.52;100.00
61119;BME280;51448;51.660;5.824;2023-04-21T05:38:48;101312.56;;;7.54;100.00
61119;BME280;51448;51.660;5.824;2023-04-21T05:41:16;101311.69;;;7.55;100.00
61119;BME280;51448;51.660;5.824;2023-04-21T05:43:43;101308.19;;;7.57;100.00
61119;BME280;51448;51.660;5.824;2023-04-21T05:46:11;101321.22;;;7.60;100.00
61119;BME280;51448;51.660;5.824;2023-04-21T05:48:39;101323.84;;;7.63;100.00
61119;BME280;51448;51.660;5.824;2023-04-21T05:51:16;101329.88;;;7.69;100.00
61119;BME280;51448;51.660;5.824;2023-04-21T05:53:44;101326.41;;;7.70;100.00
61119;BME280;51448;51.660;5.824;2023-04-21T05:56:12;101324.59;;;7.76;100.00
61119;BME280;51448;51.660;5.824;2023-04-21T05:58:40;101321.91;;;7.85;100.00
61119;BME280;51448;51.660;5.824;2023-04-21T06:01:08;101326.19;;;7.93;100.00
61119;BME280;51448;51.660;5.824;2023-04-21T06:03:36;101326.13;;;8.00;100.00
61119;BME280;51448;51.660;5.824;2023-04-21T06:06:05;101319.97;;;8.06;100.00
61119;BME280;51448;51.660;5.824;2023-04-21T06:08:33;101316.41;;;8.12;100.00
61119;BME280;51448;51.660;5.824;2023-04-21T06:11:01;101310.22;;;8.20;100.00
61119;BME280;51448;51.660;5.824;2023-04-21T06:13:32;101313.63;;;8.29;100.00
61119;BME280;51448;51.660;5.824;2023-04-21T06:16:01;101302.19;;;8.34;100.00
61119;BME280;51448;51.660;5.824;2023-04-21T06:18:29;101310.00;;;8.39;100.00
61119;BME280;51448;51.660;5.824;2023-04-21T06:20:56;101308.22;;;8.44;100.00
61119;BME280;51448;51.660;5.824;2023-04-21T06:23:24;101310.78;;;8.49;100.00
61119;BME280;51448;51.660;5.824;2023-04-21T06:26:03;101312.53;;;8.51;100.00
61119;BME280;51448;51.660;5.824;2023-04-21T06:28:34;101313.34;;;8.55;100.00
61119;BME280;51448;51.660;5.824;2023-04-21T06:31:03;101313.25;;;8.64;100.00
61119;BME280;51448;51.660;5.824;2023-04-21T06:33:35;101311.31;;;8.77;100.00
61119;BME280;51448;51.660;5.824;2023-04-21T06:36:03;101316.41;;;8.89;100.00
61119;BME280;51448;51.660;5.824;2023-04-21T06:38:31;101306.59;;;9.02;100.00
61119;BME280;51448;51.660;5.824;2023-04-21T06:40:59;101313.44;;;9.14;100.00
61119;BME280;51448;51.660;5.824;2023-04-21T06:43:28;101308.91;;;9.25;100.00
61119;BME280;51448;51.660;5.824;2023-04-21T06:45:57;101312.19;;;9.39;100.00
61119;BME280;51448;51.660;5.824;2023-04-21T06:48:25;101317.22;;;9.53;100.00
61119;BME280;51448;51.660;5.824;2023-04-21T06:50:54;101308.22;;;9.68;100.00
61119;BME280;51448;51.660;5.824;2023-04-21T06:53:22;101314.97;;;9.83;100.00
61119;BME280;51448;51.660;5.824;2023-04-21T06:55:50;101316.44;;;9.99;100.00
61119;BME280;51448;51.660;5.824;2023-04-21T06:58:19;101319.69;;;10.14;100.00
61119;BME280;51448;51.660;5.824;2023-04-21T07:00:48;101306.31;;;10.26;100.00
61119;BME280;51448;51.660;5.824;2023-04-21T07:03:15;101313.19;;;10.33;100.00
61119;BME280;51448;51.660;5.824;2023-04-21T07:05:43;101313.13;;;10.38;100.00
61119;BME280;51448;51.660;5.824;2023-04-21T07:08:12;101309.56;;;10.40;100.00
61119;BME280;51448;51.660;5.824;2023-04-21T07:10:40;101306.81;;;10.48;100.00
61119;BME280;51448;51.660;5.824;2023-04-21T07:13:07;101306.69;;;10.54;100.00
61119;BME280;51448;51.660;5.824;2023-04-21T07:15:36;101319.50;;;10.70;100.00
61119;BME280;51448;51.660;5.824;2023-04-21T07:18:04;101312.06;;;10.88;100.00
61119;BME280;51448;51.660;5.824;2023-04-21T07:20:32;101316.09;;;11.05;100.00
61119;BME280;51448;51.660;5.824;2023-04-21T07:23:00;101314.00;;;11.21;100.00
61119;BME280;51448;51.660;5.824;2023-04-21T07:25:28;101298.91;;;11.27;100.00
61119;BME280;51448;51.660;5.824;2023-04-21T07:27:56;101303.03;;;11.39;100.00
61119;BME280;51448;51.660;5.824;2023-04-21T07:30:23;101311.44;;;11.55;100.00
61119;BME280;51448;51.660;5.824;2023-04-21T07:32:51;101306.03;;;11.60;100.00
61119;BME280;51448;51.660;5.824;2023-04-21T07:35:19;101294.50;;;11.65;100.00
61119;BME280;51448;51.660;5.824;2023-04-21T07:37:47;101294.34;;;11.72;100.00
61119;BME280;51448;51.660;5.824;2023-04-21T07:40:15;101293.19;;;11.82;100.00
61119;BME280;51448;51.660;5.824;2023-04-21T07:42:43;101299.06;;;11.93;100.00
61119;BME280;51448;51.660;5.824;2023-04-21T07:45:11;101296.94;;;12.07;100.00
61119;BME280;51448;51.660;5.824;2023-04-21T07:47:39;101296.59;;;12.20;100.00
61119;BME280;51448;51.660;5.824;2023-04-21T07:50:07;101308.59;;;12.32;100.00
61119;BME280;51448;51.660;5.824;2023-04-21T07:52:35;101305.44;;;12.50;100.00
61119;BME280;51448;51.660;5.824;2023-04-21T07:55:03;101297.81;;;12.71;99.28
61119;BME280;51448;51.660;5.824;2023-04-21T07:57:31;101305.19;;;12.89;97.96
61119;BME280;51448;51.660;5.824;2023-04-21T08:00:01;101301.72;;;12.87;96.03
61119;BME280;51448;51.660;5.824;2023-04-21T08:02:38;101300.06;;;12.83;96.07
61119;BME280;51448;51.660;5.824;2023-04-21T08:05:06;101308.97;;;12.80;96.05
61119;BME280;51448;51.660;5.824;2023-04-21T08:07:35;101311.63;;;12.79;95.10
61119;BME280;51448;51.660;5.824;2023-04-21T08:10:03;101300.22;;;12.78;95.30
61119;BME280;51448;51.660;5.824;2023-04-21T08:12:32;101308.97;;;12.80;94.73
61119;BME280;51448;51.660;5.824;2023-04-21T08:15:00;101304.47;;;12.84;94.42
61119;BME280;51448;51.660;5.824;2023-04-21T08:17:32;101311.81;;;12.73;93.17
61119;BME280;51448;51.660;5.824;2023-04-21T08:20:02;101307.72;;;12.62;94.49
61119;BME280;51448;51.660;5.824;2023-04-21T08:22:30;101303.41;;;12.60;93.35
61119;BME280;51448;51.660;5.824;2023-04-21T08:24:58;101306.25;;;12.52;94.25
61119;BME280;51448;51.660;5.824;2023-04-21T08:27:25;101302.00;;;12.46;92.90
61119;BME280;51448;51.660;5.824;2023-04-21T08:29:53;101300.28;;;12.45;93.44
61119;BME280;51448;51.660;5.824;2023-04-21T08:32:21;101305.41;;;12.52;93.26
61119;BME280;51448;51.660;5.824;2023-04-21T08:34:53;101302.66;;;12.55;93.05
61119;BME280;51448;51.660;5.824;2023-04-21T08:37:21;101296.31;;;12.62;93.86
61119;BME280;51448;51.660;5.824;2023-04-21T08:39:49;101291.66;;;12.70;93.74
61119;BME280;51448;51.660;5.824;2023-04-21T08:42:18;101296.84;;;12.73;93.52
61119;BME280;51448;51.660;5.824;2023-04-21T08:44:46;101289.56;;;12.81;93.58
61119;BME280;51448;51.660;5.824;2023-04-21T08:47:14;101297.09;;;12.94;92.46
61119;BME280;51448;51.660;5.824;2023-04-21T08:49:42;101296.88;;;13.01;92.29
61119;BME280;51448;51.660;5.824;2023-04-21T08:52:12;101288.44;;;13.18;93.29
61119;BME280;51448;51.660;5.824;2023-04-21T08:54:43;101291.31;;;13.39;93.63
61119;BME280;51448;51.660;5.824;2023-04-21T08:57:10;101285.75;;;13.48;91.40
61119;BME280;51448;51.660;5.824;2023-04-21T08:59:43;101284.81;;;13.49;90.88
61119;BME280;51448;51.660;5.824;2023-04-21T09:02:14;101278.63;;;13.50;91.27
61119;BME280;51448;51.660;5.824;2023-04-21T09:04:45;101281.06;;;13.56;89.27
61119;BME280;51448;51.660;5.824;2023-04-21T09:07:31;101279.09;;;13.63;89.34
61119;BME280;51448;51.660;5.824;2023-04-21T09:10:02;101278.78;;;13.72;89.09
61119;BME280;51448;51.660;5.824;2023-04-21T09:12:31;101285.78;;;13.73;89.40
61119;BME280;51448;51.660;5.824;2023-04-21T09:15:03;101283.97;;;13.75;89.43
61119;BME280;51448;51.660;5.824;2023-04-21T09:17:32;101278.50;;;13.80;89.32
61119;BME280;51448;51.660;5.824;2023-04-21T09:20:16;101281.66;;;13.91;89.08
61119;BME280;51448;51.660;5.824;2023-04-21T09:22:48;101275.00;;;14.04;88.66
61119;BME280;51448;51.660;5.824;2023-04-21T09:25:21;101282.50;;;14.17;89.11
61119;BME280;51448;51.660;5.824;2023-04-21T09:27:49;101275.16;;;14.25;89.49
61119;BME280;51448;51.660;5.824;2023-04-21T09:30:18;101281.16;;;14.30;86.36
61119;BME280;51448;51.660;5.824;2023-04-21T09:32:47;101287.31;;;14.31;86.44
61119;BME280;51448;51.660;5.824;2023-04-21T09:35:15;101284.59;;;14.32;86.79
61119;BME280;51448;51.660;5.824;2023-04-21T09:37:43;101289.91;;;14.32;86.30
61119;BME280;51448;51.660;5.824;2023-04-21T09:40:13;101284.84;;;14.26;86.35
61119;BME280;51448;51.660;5.824;2023-04-21T09:42:45;101279.59;;;14.24;86.91
61119;BME280;51448;51.660;5.824;2023-04-21T09:45:13;101279.63;;;14.23;87.16
61119;BME280;51448;51.660;5.824;2023-04-21T09:47:49;101284.19;;;14.19;86.32
61119;BME280;51448;51.660;5.824;2023-04-21T09:50:21;101280.16;;;14.09;85.76
61119;BME280;51448;51.660;5.824;2023-04-21T09:53:14;101280.38;;;14.03;85.71
61119;BME280;51448;51.660;5.824;2023-04-21T09:55:46;101272.44;;;14.03;86.07
61119;BME280;51448;51.660;5.824;2023-04-21T09:58:21;101266.03;;;14.08;86.06
61119;BME280;51448;51.660;5.824;2023-04-21T10:00:52;101266.03;;;14.08;86.56
61119;BME280;51448;51.660;5.824;2023-04-21T10:03:26;101265.81;;;14.15;86.26
61119;BME280;51448;51.660;5.824;2023-04-21T10:05:55;101263.13;;;14.16;85.96
61119;BME280;51448;51.660;5.824;2023-04-21T10:08:23;101263.75;;;14.23;86.35
61119;BME280;51448;51.660;5.824;2023-04-21T10:10:51;101256.72;;;14.47;86.59
61119;BME280;51448;51.660;5.824;2023-04-21T10:13:21;101251.69;;;14.64;87.03
61119;BME280;51448;51.660;5.824;2023-04-21T10:16:00;101254.72;;;14.77;86.28
61119;BME280;51448;51.660;5.824;2023-04-21T10:18:30;101257.19;;;14.82;85.07
61119;BME280;51448;51.660;5.824;2023-04-21T10:26:03;101259.59;;;15.10;81.70
61119;BME280;51448;51.660;5.824;2023-04-21T10:34:41;101249.53;;;14.74;83.49
61119;BME280;51448;51.660;5.824;2023-04-21T10:37:10;101245.59;;;14.84;82.89
61119;BME280;51448;51.660;5.824;2023-04-21T10:39:45;101239.66;;;15.01;83.46
61119;BME280;51448;51.660;5.824;2023-04-21T10:47:25;101228.38;;;15.18;79.73
61119;BME280;51448;51.660;5.824;2023-04-21T10:53:09;101225.00;;;15.35;81.27
61119;BME280;51448;51.660;5.824;2023-04-21T10:55:39;101216.00;;;15.39;81.38
61119;BME280;51448;51.660;5.824;2023-04-21T10:58:08;101207.31;;;15.36;79.04
61119;BME280;51448;51.660;5.824;2023-04-21T11:00:36;101203.47;;;15.22;79.07
61119;BME280;51448;51.660;5.824;2023-04-21T11:03:06;101199.03;;;15.23;80.74
61119;BME280;51448;51.660;5.824;2023-04-21T11:05:39;101205.06;;;15.26;80.24
61119;BME280;51448;51.660;5.824;2023-04-21T11:08:09;101197.97;;;15.47;80.59
61119;BME280;51448;51.660;5.824;2023-04-21T11:10:52;101191.25;;;15.61;80.27
61119;BME280;51448;51.660;5.824;2023-04-21T11:13:24;101183.22;;;15.83;81.18
61119;BME280;51448;51.660;5.824;2023-04-21T11:16:01;101183.13;;;16.05;79.58
61119;BME280;51448;51.660;5.824;2023-04-21T11:18:33;101170.59;;;16.08;78.10
61119;BME280;51448;51.660;5.824;2023-04-21T11:21:22;101171.00;;;15.99;76.25
61119;BME280;51448;51.660;5.824;2023-04-21T11:23:53;101179.44;;;15.88;76.90
61119;BME280;51448;51.660;5.824;2023-04-21T11:26:48;101159.16;;;15.87;77.52
61119;BME280;51448;51.660;5.824;2023-04-21T11:29:16;101152.69;;;15.93;77.28
61119;BME280;51448;51.660;5.824;2023-04-21T11:31:45;101153.75;;;15.89;77.91
61119;BME280;51448;51.660;5.824;2023-04-21T11:34:19;101151.28;;;15.86;79.60
61119;BME280;51448;51.660;5.824;2023-04-21T11:36:48;101148.41;;;15.91;79.10
61119;BME280;51448;51.660;5.824;2023-04-21T11:39:16;101141.16;;;15.94;78.74
61119;BME280;51448;51.660;5.824;2023-04-21T11:41:49;101133.44;;;15.89;78.81
61119;BME280;51448;51.660;5.824;2023-04-21T11:44:37;101134.63;;;15.82;78.65
61119;BME280;51448;51.660;5.824;2023-04-21T11:47:17;101130.44;;;15.77;77.41
61119;BME280;51448;51.660;5.824;2023-04-21T11:49:53;101129.03;;;15.88;78.83
61119;BME280;51448;51.660;5.824;2023-04-21T11:52:27;101134.22;;;16.11;78.43
61119;BME280;51448;51.660;5.824;2023-04-21T11:55:01;101122.66;;;16.12;76.90
61119;BME280;51448;51.660;5.824;2023-04-21T11:57:30;101123.56;;;16.12;77.33
61119;BME280;51448;51.660;5.824;2023-04-21T12:00:00;101117.16;;;16.16;76.34
61119;BME280;51448;51.660;5.824;2023-04-21T12:02:32;101120.28;;;16.05;77.16
61119;BME280;51448;51.660;5.824;2023-04-21T12:07:31;101120.78;;;15.76;76.81
61119;BME280;51448;51.660;5.824;2023-04-21T12:10:11;101120.44;;;15.63;77.28
61119;BME280;51448;51.660;5.824;2023-04-21T12:12:41;101117.41;;;15.52;77.28
61119;BME280;51448;51.660;5.824;2023-04-21T12:15:10;101116.88;;;15.43;78.02
61119;BME280;51448;51.660;5.824;2023-04-21T12:17:43;101100.84;;;15.46;80.24
61119;BME280;51448;51.660;5.824;2023-04-21T12:20:20;101105.28;;;15.46;79.45
61119;BME280;51448;51.660;5.824;2023-04-21T12:22:50;101100.69;;;15.49;79.67
61119;BME280;51448;51.660;5.824;2023-04-21T12:25:18;101098.13;;;15.48;79.67
61119;BME280;51448;51.660;5.824;2023-04-21T12:27:57;101095.97;;;15.56;80.65
61119;BME280;51448;51.660;5.824;2023-04-21T12:30:25;101085.19;;;15.81;80.24
61119;BME280;51448;51.660;5.824;2023-04-21T12:32:53;101081.75;;;15.98;79.38
61119;BME280;51448;51.660;5.824;2023-04-21T12:35:22;101085.75;;;16.07;79.13
61119;BME280;51448;51.660;5.824;2023-04-21T12:37:50;101092.34;;;16.17;78.93
61119;BME280;51448;51.660;5.824;2023-04-21T12:40:18;101076.25;;;16.39;79.32
61119;BME280;51448;51.660;5.824;2023-04-21T12:42:46;101084.06;;;16.42;76.11
61119;BME280;51448;51.660;5.824;2023-04-21T12:45:15;101070.69;;;16.26;77.62
61119;BME280;51448;51.660;5.824;2023-04-21T12:47:42;101077.56;;;16.12;78.37
61119;BME280;51448;51.660;5.824;2023-04-21T12:50:13;101070.69;;;16.07;78.39
61119;BME280;51448;51.660;5.824;2023-04-21T12:52:42;101068.75;;;15.92;78.09
61119;BME280;51448;51.660;5.824;2023-04-21T12:55:09;101069.97;;;15.85;77.87
61119;BME280;51448;51.660;5.824;2023-04-21T12:57:39;101069.56;;;15.75;78.84
61119;BME280;51448;51.660;5.824;2023-04-21T13:00:08;101053.34;;;15.81;80.17
61119;BME280;51448;51.660;5.824;2023-04-21T13:02:39;101054.34;;;15.79;80.01
61119;BME280;51448;51.660;5.824;2023-04-21T13:05:08;101056.59;;;15.67;80.23
61119;BME280;51448;51.660;5.824;2023-04-21T13:07:38;101052.56;;;15.79;80.19
61119;BME280;51448;51.660;5.824;2023-04-21T13:10:06;101043.88;;;15.95;79.67
61119;BME280;51448;51.660;5.824;2023-04-21T13:12:34;101048.16;;;15.97;80.17
61119;BME280;51448;51.660;5.824;2023-04-21T13:15:03;101044.44;;;16.01;79.62
61119;BME280;51448;51.660;5.824;2023-04-21T13:17:31;101040.09;;;16.00;79.66
61119;BME280;51448;51.660;5.824;2023-04-21T13:19:59;101033.63;;;16.06;80.94
61119;BME280;51448;51.660;5.824;2023-04-21T13:22:27;101039.34;;;16.16;78.84
61119;BME280;51448;51.660;5.824;2023-04-21T13:24:55;101033.69;;;16.04;78.03